Time,TemperatureF,DewpointF,PressureIn,WindDirection,WindDirectionDegrees,WindSpeedMPH,WindSpeedGustMPH,Humidity,HourlyPrecipIn,Conditions,Clouds,dailyrainin,SoftwareType,DateUTC
2013-04-04 00:02:00,48.2,47.0,30.06,NE,41,6.0,9.0,94,0.00,,,0.00,weatherlink.com 1.10,2013-04-04 05:02:00,
2013-04-04 00:18:00,48.0,46.0,30.06,North,4,7.0,8.0,94,0.00,,,0.00,weatherlink.com 1.10,2013-04-04 05:18:00,
2013-04-04 00:34:00,47.9,46.0,30.04,NNE,27,7.0,12.0,94,0.00,,,0.00,weatherlink.com 1.10,2013-04-04 05:34:00,
2013-04-04 01:04:00,47.8,46.0,30.03,North,4,7.0,10.0,94,0.00,,,0.00,weatherlink.com 1.10,2013-04-04 06:04:00,
2013-04-04 01:19:00,47.7,46.0,30.03,NNW,339,9.0,11.0,94,0.00,,,0.00,weatherlink.com 1.10,2013-04-04 06:19:00,
2013-04-04 01:34:00,47.6,46.0,30.03,North,9,6.0,13.0,94,0.00,,,0.00,weatherlink.com 1.10,2013-04-04 06:34:00,
2013-04-04 01:49:00,47.6,46.0,30.03,NNE,12,5.0,13.0,94,0.00,,,0.00,weatherlink.com 1.10,2013-04-04 06:49:00,
2013-04-04 02:05:00,47.5,46.0,30.02,NNW,340,6.0,10.0,94,0.00,,,0.00,weatherlink.com 1.10,2013-04-04 07:05:00,
2013-04-04 02:20:00,47.5,46.0,30.03,North,349,8.0,15.0,93,0.00,,,0.00,weatherlink.com 1.10,2013-04-04 07:20:00,
2013-04-04 02:35:00,47.6,46.0,30.03,NNE,20,5.0,10.0,93,0.00,,,0.00,weatherlink.com 1.10,2013-04-04 07:35:00,
2013-04-04 03:05:00,47.3,46.0,30.03,NNW,345,4.0,6.0,94,0.00,,,0.00,weatherlink.com 1.10,2013-04-04 08:05:00,
2013-04-04 03:20:00,47.0,46.0,30.02,North,350,4.0,8.0,95,0.00,,,0.00,weatherlink.com 1.10,2013-04-04 08:20:00,
2013-04-04 03:35:00,46.9,46.0,30.02,NW,322,1.0,10.0,96,0.00,,,0.00,weatherlink.com 1.10,2013-04-04 08:35:00,
2013-04-04 03:50:00,46.7,46.0,30.01,North,358,8.0,8.0,96,0.00,,,0.00,weatherlink.com 1.10,2013-04-04 08:50:00,
2013-04-04 04:21:00,46.7,46.0,30.02,North,358,3.0,5.0,97,0.00,,,0.00,weatherlink.com 1.10,2013-04-04 09:21:00,
2013-04-04 04:36:00,46.8,46.0,30.02,NW,308,5.0,9.0,97,0.00,,,0.00,weatherlink.com 1.10,2013-04-04 09:36:00,
2013-04-04 05:06:00,46.7,46.0,30.02,NNW,347,2.0,4.0,97,0.00,,,0.00,weatherlink.com 1.10,2013-04-04 10:06:00,
2013-04-04 05:21:00,46.8,46.0,30.02,North,354,1.0,5.0,97,0.00,,,0.00,weatherlink.com 1.10,2013-04-04 10:21:00,
2013-04-04 05:37:00,46.8,46.0,30.02,NNW,337,1.0,5.0,97,0.00,,,0.00,weatherlink.com 1.10,2013-04-04 10:37:00,
2013-04-04 05:52:00,46.7,46.0,30.02,NNW,347,4.0,7.0,96,0.00,,,0.00,weatherlink.com 1.10,2013-04-04 10:52:00,
2013-04-04 06:07:00,46.7,46.0,30.02,NNW,339,5.0,9.0,96,0.00,,,0.00,weatherlink.com 1.10,2013-04-04 11:07:00,
2013-04-04 06:23:00,46.7,46.0,30.02,NW,326,4.0,8.0,96,0.00,,,0.00,weatherlink.com 1.10,2013-04-04 11:23:00,
2013-04-04 06:38:00,46.7,46.0,30.02,NNE,15,4.0,8.0,96,0.00,,,0.00,weatherlink.com 1.10,2013-04-04 11:38:00,
2013-04-04 06:53:00,46.7,46.0,30.04,North,356,5.0,7.0,96,0.00,,,0.00,weatherlink.com 1.10,2013-04-04 11:53:00,
2013-04-04 07:08:00,46.7,46.0,30.05,WNW,285,3.0,10.0,96,0.00,,,0.00,weatherlink.com 1.10,2013-04-04 12:08:00,
2013-04-04 07:23:00,46.7,46.0,30.06,NW,308,2.0,6.0,96,0.00,,,0.00,weatherlink.com 1.10,2013-04-04 12:23:00,
2013-04-04 07:54:00,46.7,46.0,30.07,North,356,1.0,6.0,96,0.00,,,0.00,weatherlink.com 1.10,2013-04-04 12:54:00,
2013-04-04 08:09:00,46.8,46.0,30.08,NNW,337,2.0,6.0,97,0.00,,,0.00,weatherlink.com 1.10,2013-04-04 13:09:00,
2013-04-04 08:24:00,46.8,46.0,30.08,WNW,297,3.0,7.0,97,0.00,,,0.00,weatherlink.com 1.10,2013-04-04 13:24:00,
2013-04-04 08:39:00,46.8,46.0,30.09,North,354,7.0,10.0,96,0.00,,,0.00,weatherlink.com 1.10,2013-04-04 13:39:00,
2013-04-04 08:54:00,46.9,46.0,30.09,WNW,287,2.0,10.0,96,0.00,,,0.00,weatherlink.com 1.10,2013-04-04 13:54:00,
2013-04-04 09:10:00,47.1,45.0,30.10,NW,309,5.0,10.0,94,0.00,,,0.00,weatherlink.com 1.10,2013-04-04 14:10:00,
2013-04-04 09:25:00,47.1,45.0,30.10,WNW,300,9.0,9.0,94,0.00,,,0.00,weatherlink.com 1.10,2013-04-04 14:25:00,
2013-04-04 09:40:00,47.2,46.0,30.10,NW,304,6.0,10.0,95,0.00,,,0.00,weatherlink.com 1.10,2013-04-04 14:40:00,
2013-04-04 09:55:00,47.3,46.0,30.11,NW,314,5.0,10.0,95,0.00,,,0.00,weatherlink.com 1.10,2013-04-04 14:55:00,
2013-04-04 10:10:00,47.4,46.0,30.10,NW,319,5.0,8.0,95,0.00,,,0.00,weatherlink.com 1.10,2013-04-04 15:10:00,
2013-04-04 10:41:00,47.6,46.0,30.10,NNE,19,2.0,11.0,95,0.00,,,0.00,weatherlink.com 1.10,2013-04-04 15:41:00,
2013-04-04 10:56:00,48.0,46.0,30.10,North,360,4.0,10.0,94,0.00,,,0.00,weatherlink.com 1.10,2013-04-04 15:56:00,
2013-04-04 11:11:00,48.5,46.0,30.10,NW,307,7.0,13.0,91,0.00,,,0.00,weatherlink.com 1.10,2013-04-04 16:11:00,
2013-04-04 11:41:00,49.6,46.0,30.11,NNW,327,3.0,9.0,89,0.00,,,0.00,weatherlink.com 1.10,2013-04-04 16:41:00,
2013-04-04 11:57:00,49.7,46.0,30.11,NW,308,13.0,15.0,87,0.00,,,0.00,weatherlink.com 1.10,2013-04-04 16:57:00,
2013-04-04 12:12:00,50.0,46.0,30.10,WNW,290,3.0,10.0,86,0.00,,,0.00,weatherlink.com 1.10,2013-04-04 17:12:00,
2013-04-04 12:27:00,50.4,47.0,30.09,NNW,340,2.0,12.0,87,0.00,,,0.00,weatherlink.com 1.10,2013-04-04 17:27:00,
2013-04-04 12:43:00,50.7,46.0,30.08,NW,319,6.0,13.0,85,0.00,,,0.00,weatherlink.com 1.10,2013-04-04 17:43:00,
2013-04-04 12:58:00,50.3,47.0,30.07,NNW,345,3.0,11.0,87,0.00,,,0.00,weatherlink.com 1.10,2013-04-04 17:58:00,
2013-04-04 13:13:00,50.9,47.0,30.07,WNW,293,4.0,10.0,86,0.00,,,0.00,weatherlink.com 1.10,2013-04-04 18:13:00,
2013-04-04 13:44:00,51.5,47.0,30.07,NW,325,5.0,14.0,84,0.00,,,0.00,weatherlink.com 1.10,2013-04-04 18:44:00,
2013-04-04 13:59:00,51.1,47.0,30.07,WNW,294,12.0,13.0,86,0.00,,,0.00,weatherlink.com 1.10,2013-04-04 18:59:00,
2013-04-04 14:14:00,50.6,47.0,30.06,WNW,287,8.0,16.0,86,0.00,,,0.00,weatherlink.com 1.10,2013-04-04 19:14:00,
2013-04-04 14:29:00,51.0,46.0,30.06,WNW,302,11.0,11.0,84,0.00,,,0.00,weatherlink.com 1.10,2013-04-04 19:29:00,
2013-04-04 14:44:00,51.1,46.0,30.06,NW,318,3.0,16.0,84,0.00,,,0.00,weatherlink.com 1.10,2013-04-04 19:44:00,
2013-04-04 15:15:00,51.4,46.0,30.05,NW,321,8.0,15.0,83,0.00,,,0.00,weatherlink.com 1.10,2013-04-04 20:15:00,
2013-04-04 15:30:00,51.1,46.0,30.05,WNW,301,9.0,19.0,83,0.00,,,0.00,weatherlink.com 1.10,2013-04-04 20:30:00,
2013-04-04 15:46:00,51.1,46.0,30.04,West,276,2.0,14.0,83,0.00,,,0.00,weatherlink.com 1.10,2013-04-04 20:46:00,
2013-04-04 16:01:00,51.5,46.0,30.04,WNW,292,5.0,16.0,81,0.00,,,0.00,weatherlink.com 1.10,2013-04-04 21:01:00,
2013-04-04 16:16:00,51.5,45.0,30.04,WNW,298,13.0,21.0,79,0.00,,,0.00,weatherlink.com 1.10,2013-04-04 21:16:00,
2013-04-04 16:31:00,51.3,45.0,30.05,North,358,14.0,16.0,80,0.00,,,0.00,weatherlink.com 1.10,2013-04-04 21:31:00,
2013-04-04 16:47:00,51.3,45.0,30.05,NNW,335,10.0,16.0,80,0.00,,,0.00,weatherlink.com 1.10,2013-04-04 21:47:00,
2013-04-04 17:02:00,51.1,45.0,30.05,NW,305,11.0,14.0,81,0.00,,,0.00,weatherlink.com 1.10,2013-04-04 22:02:00,
2013-04-04 17:17:00,51.2,45.0,30.05,NNE,33,14.0,17.0,80,0.00,,,0.00,weatherlink.com 1.10,2013-04-04 22:17:00,
2013-04-04 17:32:00,51.1,45.0,30.05,NNE,32,8.0,17.0,81,0.00,,,0.00,weatherlink.com 1.10,2013-04-04 22:32:00,
2013-04-04 17:47:00,51.2,45.0,30.04,North,349,8.0,13.0,80,0.00,,,0.00,weatherlink.com 1.10,2013-04-04 22:47:00,
2013-04-04 18:03:00,50.7,45.0,30.04,NW,323,6.0,15.0,81,0.00,,,0.00,weatherlink.com 1.10,2013-04-04 23:03:00,
2013-04-04 18:18:00,50.4,45.0,30.06,North,6,12.0,14.0,81,0.00,,,0.00,weatherlink.com 1.10,2013-04-04 23:18:00,
2013-04-04 18:33:00,50.1,45.0,30.06,North,1,7.0,16.0,82,0.00,,,0.00,weatherlink.com 1.10,2013-04-04 23:33:00,
2013-04-04 18:48:00,49.9,45.0,30.06,WNW,290,7.0,12.0,82,0.00,,,0.00,weatherlink.com 1.10,2013-04-04 23:48:00,
2013-04-04 19:03:00,49.7,45.0,30.07,WNW,283,7.0,12.0,83,0.00,,,0.00,weatherlink.com 1.10,2013-04-05 00:03:00,
2013-04-04 19:18:00,49.6,45.0,30.07,North,359,4.0,11.0,83,0.00,,,0.00,weatherlink.com 1.10,2013-04-05 00:18:00,
2013-04-04 19:33:00,49.5,44.0,30.07,NNW,338,2.0,15.0,82,0.00,,,0.00,weatherlink.com 1.10,2013-04-05 00:33:00,
2013-04-04 20:19:00,49.1,44.0,30.09,NNW,329,2.0,10.0,84,0.00,,,0.00,weatherlink.com 1.10,2013-04-05 01:19:00,
2013-04-04 20:34:00,49.1,44.0,30.09,North,5,7.0,9.0,84,0.00,,,0.00,weatherlink.com 1.10,2013-04-05 01:34:00,
2013-04-04 20:49:00,49.0,44.0,30.10,WNW,295,5.0,12.0,83,0.00,,,0.00,weatherlink.com 1.10,2013-04-05 01:49:00,
2013-04-04 21:04:00,48.9,44.0,30.11,NW,308,3.0,12.0,83,0.00,,,0.00,weatherlink.com 1.10,2013-04-05 02:04:00,
2013-04-04 21:34:00,48.7,44.0,30.12,NW,316,1.0,7.0,84,0.00,,,0.00,weatherlink.com 1.10,2013-04-05 02:34:00,
2013-04-04 21:50:00,48.6,44.0,30.13,NNE,13,3.0,8.0,85,0.00,,,0.00,weatherlink.com 1.10,2013-04-05 02:50:00,
2013-04-04 22:05:00,48.6,45.0,30.14,WNW,287,4.0,10.0,86,0.00,,,0.00,weatherlink.com 1.10,2013-04-05 03:05:00,
2013-04-04 22:20:00,48.5,45.0,30.14,NW,307,5.0,9.0,86,0.00,,,0.00,weatherlink.com 1.10,2013-04-05 03:20:00,
2013-04-04 22:35:00,48.5,44.0,30.14,WNW,298,3.0,8.0,85,0.00,,,0.00,weatherlink.com 1.10,2013-04-05 03:35:00,
2013-04-04 22:50:00,48.4,44.0,30.13,NW,326,5.0,9.0,85,0.00,,,0.00,weatherlink.com 1.10,2013-04-05 03:50:00,
2013-04-04 23:06:00,48.4,44.0,30.14,NNW,345,4.0,8.0,85,0.00,,,0.00,weatherlink.com 1.10,2013-04-05 04:06:00,
2013-04-04 23:21:00,48.4,44.0,30.15,West,278,8.0,9.0,85,0.00,,,0.00,weatherlink.com 1.10,2013-04-05 04:21:00,